sensor_id;sensor_type;location;lat;lon;timestamp;P1;durP1;ratioP1;P2;durP2;ratioP2
40609;SDS011;26316;55.976;37.140;2022-07-23T00:00:55;3.30;;;3.00;;
40609;SDS011;26316;55.976;37.140;2022-07-23T00:03:21;2.92;;;2.67;;
40609;SDS011;26316;55.976;37.140;2022-07-23T00:05:46;4.03;;;2.75;;
40609;SDS011;26316;55.976;37.140;2022-07-23T00:08:12;3.67;;;2.83;;
40609;SDS011;26316;55.976;37.140;2022-07-23T00:10:38;3.33;;;2.80;;
40609;SDS011;26316;55.976;37.140;2022-07-23T00:13:04;3.40;;;2.85;;
40609;SDS011;26316;55.976;37.140;2022-07-23T00:15:29;4.25;;;3.05;;
40609;SDS011;26316;55.976;37.140;2022-07-23T00:17:55;3.88;;;2.67;;
40609;SDS011;26316;55.976;37.140;2022-07-23T00:20:21;2.78;;;2.58;;
40609;SDS011;26316;55.976;37.140;2022-07-23T00:22:47;3.60;;;3.10;;
40609;SDS011;26316;55.976;37.140;2022-07-23T00:25:14;4.03;;;2.85;;
40609;SDS011;26316;55.976;37.140;2022-07-23T00:27:40;4.82;;;3.00;;
40609;SDS011;26316;55.976;37.140;2022-07-23T00:30:05;4.38;;;2.95;;
40609;SDS011;26316;55.976;37.140;2022-07-23T00:32:32;4.60;;;2.78;;
40609;SDS011;26316;55.976;37.140;2022-07-23T00:34:58;3.45;;;2.25;;
40609;SDS011;26316;55.976;37.140;2022-07-23T00:37:24;2.80;;;2.55;;
40609;SDS011;26316;55.976;37.140;2022-07-23T00:39:50;2.67;;;2.45;;
40609;SDS011;26316;55.976;37.140;2022-07-23T00:42:15;2.90;;;2.58;;
40609;SDS011;26316;55.976;37.140;2022-07-23T00:44:41;4.93;;;2.30;;
40609;SDS011;26316;55.976;37.140;2022-07-23T00:47:07;2.97;;;2.60;;
40609;SDS011;26316;55.976;37.140;2022-07-23T00:49:33;2.30;;;2.20;;
40609;SDS011;26316;55.976;37.140;2022-07-23T00:52:00;2.30;;;2.10;;
40609;SDS011;26316;55.976;37.140;2022-07-23T00:54:27;2.75;;;2.50;;
40609;SDS011;26316;55.976;37.140;2022-07-23T00:56:53;2.60;;;2.40;;
40609;SDS011;26316;55.976;37.140;2022-07-23T00:59:19;3.50;;;2.35;;
40609;SDS011;26316;55.976;37.140;2022-07-23T01:01:45;3.22;;;2.40;;
40609;SDS011;26316;55.976;37.140;2022-07-23T01:04:14;3.80;;;2.70;;
40609;SDS011;26316;55.976;37.140;2022-07-23T01:06:40;4.13;;;2.88;;
40609;SDS011;26316;55.976;37.140;2022-07-23T01:09:07;5.53;;;2.67;;
40609;SDS011;26316;55.976;37.140;2022-07-23T01:11:33;2.88;;;2.42;;
40609;SDS011;26316;55.976;37.140;2022-07-23T01:14:07;5.18;;;2.70;;
40609;SDS011;26316;55.976;37.140;2022-07-23T01:16:36;4.15;;;3.28;;
40609;SDS011;26316;55.976;37.140;2022-07-23T01:19:03;3.03;;;2.55;;
40609;SDS011;26316;55.976;37.140;2022-07-23T01:21:33;2.80;;;2.20;;
40609;SDS011;26316;55.976;37.140;2022-07-23T01:24:04;4.03;;;2.47;;
40609;SDS011;26316;55.976;37.140;2022-07-23T01:26:31;3.38;;;2.22;;
40609;SDS011;26316;55.976;37.140;2022-07-23T01:28:57;2.63;;;2.25;;
40609;SDS011;26316;55.976;37.140;2022-07-23T01:31:23;3.17;;;2.83;;
40609;SDS011;26316;55.976;37.140;2022-07-23T01:33:52;3.85;;;2.28;;
40609;SDS011;26316;55.976;37.140;2022-07-23T01:36:18;4.60;;;2.67;;
40609;SDS011;26316;55.976;37.140;2022-07-23T01:38:44;3.00;;;2.67;;
40609;SDS011;26316;55.976;37.140;2022-07-23T01:41:10;2.75;;;2.17;;
40609;SDS011;26316;55.976;37.140;2022-07-23T01:43:38;2.92;;;2.30;;
40609;SDS011;26316;55.976;37.140;2022-07-23T01:46:04;2.78;;;2.58;;
40609;SDS011;26316;55.976;37.140;2022-07-23T01:48:37;2.50;;;2.28;;
40609;SDS011;26316;55.976;37.140;2022-07-23T01:51:38;5.07;;;2.55;;
40609;SDS011;26316;55.976;37.140;2022-07-23T01:54:25;5.85;;;2.50;;
40609;SDS011;26316;55.976;37.140;2022-07-23T01:56:52;2.85;;;2.40;;
40609;SDS011;26316;55.976;37.140;2022-07-23T01:59:17;4.28;;;2.55;;
40609;SDS011;26316;55.976;37.140;2022-07-23T02:01:43;3.67;;;2.40;;
40609;SDS011;26316;55.976;37.140;2022-07-23T02:04:09;2.33;;;2.13;;
40609;SDS011;26316;55.976;37.140;2022-07-23T02:06:35;6.13;;;2.60;;
40609;SDS011;26316;55.976;37.140;2022-07-23T02:09:00;6.30;;;2.60;;
40609;SDS011;26316;55.976;37.140;2022-07-23T02:11:26;2.72;;;2.20;;
40609;SDS011;26316;55.976;37.140;2022-07-23T02:13:53;3.78;;;2.35;;
40609;SDS011;26316;55.976;37.140;2022-07-23T02:16:20;6.75;;;2.20;;
40609;SDS011;26316;55.976;37.140;2022-07-23T02:18:46;3.90;;;2.33;;
40609;SDS011;26316;55.976;37.140;2022-07-23T02:21:12;5.03;;;2.60;;
40609;SDS011;26316;55.976;37.140;2022-07-23T02:23:38;2.47;;;2.28;;
40609;SDS011;26316;55.976;37.140;2022-07-23T02:26:04;5.13;;;2.53;;
40609;SDS011;26316;55.976;37.140;2022-07-23T02:28:30;3.75;;;2.30;;
40609;SDS011;26316;55.976;37.140;2022-07-23T02:30:56;5.80;;;2.53;;
40609;SDS011;26316;55.976;37.140;2022-07-23T02:33:22;2.22;;;2.00;;
40609;SDS011;26316;55.976;37.140;2022-07-23T02:35:48;2.50;;;2.25;;
40609;SDS011;26316;55.976;37.140;2022-07-23T02:38:14;2.15;;;2.03;;
40609;SDS011;26316;55.976;37.140;2022-07-23T02:40:39;2.35;;;2.10;;
40609;SDS011;26316;55.976;37.140;2022-07-23T02:43:06;3.60;;;2.70;;
40609;SDS011;26316;55.976;37.140;2022-07-23T02:45:32;2.63;;;2.42;;
40609;SDS011;26316;55.976;37.140;2022-07-23T02:47:57;5.00;;;2.58;;
40609;SDS011;26316;55.976;37.140;2022-07-23T02:50:23;6.20;;;2.72;;
40609;SDS011;26316;55.976;37.140;2022-07-23T02:52:52;2.38;;;2.17;;
40609;SDS011;26316;55.976;37.140;2022-07-23T02:55:17;3.22;;;2.47;;
40609;SDS011;26316;55.976;37.140;2022-07-23T02:57:43;2.45;;;2.33;;
40609;SDS011;26316;55.976;37.140;2022-07-23T03:00:10;2.75;;;2.58;;
40609;SDS011;26316;55.976;37.140;2022-07-23T03:02:38;4.40;;;2.42;;
40609;SDS011;26316;55.976;37.140;2022-07-23T03:05:04;2.85;;;2.50;;
40609;SDS011;26316;55.976;37.140;2022-07-23T03:07:30;2.95;;;2.55;;
40609;SDS011;26316;55.976;37.140;2022-07-23T03:09:56;5.40;;;2.40;;
40609;SDS011;26316;55.976;37.140;2022-07-23T03:12:22;5.82;;;2.25;;
40609;SDS011;26316;55.976;37.140;2022-07-23T03:14:49;4.45;;;2.50;;
40609;SDS011;26316;55.976;37.140;2022-07-23T03:17:15;5.65;;;2.83;;
40609;SDS011;26316;55.976;37.140;2022-07-23T03:19:41;2.78;;;2.30;;
40609;SDS011;26316;55.976;37.140;2022-07-23T03:22:08;5.68;;;2.92;;
40609;SDS011;26316;55.976;37.140;2022-07-23T03:24:33;3.25;;;2.60;;
40609;SDS011;26316;55.976;37.140;2022-07-23T03:27:34;3.65;;;2.20;;
40609;SDS011;26316;55.976;37.140;2022-07-23T03:30:00;2.78;;;2.47;;
40609;SDS011;26316;55.976;37.140;2022-07-23T03:32:26;3.65;;;2.42;;
40609;SDS011;26316;55.976;37.140;2022-07-23T03:34:52;4.45;;;2.60;;
40609;SDS011;26316;55.976;37.140;2022-07-23T03:37:19;2.88;;;2.60;;
40609;SDS011;26316;55.976;37.140;2022-07-23T03:39:46;4.28;;;3.53;;
40609;SDS011;26316;55.976;37.140;2022-07-23T03:42:12;4.50;;;3.28;;
40609;SDS011;26316;55.976;37.140;2022-07-23T03:44:38;3.67;;;2.78;;
40609;SDS011;26316;55.976;37.140;2022-07-23T03:47:04;4.00;;;3.42;;
40609;SDS011;26316;55.976;37.140;2022-07-23T03:49:31;3.30;;;2.97;;
40609;SDS011;26316;55.976;37.140;2022-07-23T03:51:58;3.47;;;3.22;;
40609;SDS011;26316;55.976;37.140;2022-07-23T03:54:24;3.58;;;3.28;;
40609;SDS011;26316;55.976;37.140;2022-07-23T03:56:50;3.55;;;3.25;;
40609;SDS011;26316;55.976;37.140;2022-07-23T03:59:16;3.47;;;3.10;;
40609;SDS011;26316;55.976;37.140;2022-07-23T04:01:44;6.65;;;3.15;;
40609;SDS011;26316;55.976;37.140;2022-07-23T04:04:10;5.72;;;3.35;;
40609;SDS011;26316;55.976;37.140;2022-07-23T04:06:39;8.57;;;3.83;;
40609;SDS011;26316;55.976;37.140;2022-07-23T04:09:05;7.30;;;3.75;;
40609;SDS011;26316;55.976;37.140;2022-07-23T04:11:32;7.18;;;3.83;;
40609;SDS011;26316;55.976;37.140;2022-07-23T04:13:57;3.33;;;2.85;;
40609;SDS011;26316;55.976;37.140;2022-07-23T04:16:23;3.50;;;3.20;;
40609;SDS011;26316;55.976;37.140;2022-07-23T04:18:49;5.75;;;3.50;;
40609;SDS011;26316;55.976;37.140;2022-07-23T04:21:18;5.18;;;3.38;;
40609;SDS011;26316;55.976;37.140;2022-07-23T04:23:45;3.85;;;3.03;;
40609;SDS011;26316;55.976;37.140;2022-07-23T04:26:12;4.40;;;3.05;;
40609;SDS011;26316;55.976;37.140;2022-07-23T04:28:38;4.68;;;3.30;;
40609;SDS011;26316;55.976;37.140;2022-07-23T04:31:04;6.45;;;3.25;;
40609;SDS011;26316;55.976;37.140;2022-07-23T04:33:31;5.57;;;3.63;;
40609;SDS011;26316;55.976;37.140;2022-07-23T04:36:00;3.55;;;3.22;;
40609;SDS011;26316;55.976;37.140;2022-07-23T04:38:26;3.95;;;3.47;;
40609;SDS011;26316;55.976;37.140;2022-07-23T04:40:56;5.55;;;3.72;;
40609;SDS011;26316;55.976;37.140;2022-07-23T04:43:22;3.85;;;3.55;;
40609;SDS011;26316;55.976;37.140;2022-07-23T04:45:49;4.88;;;3.42;;
40609;SDS011;26316;55.976;37.140;2022-07-23T04:48:15;9.43;;;3.95;;
40609;SDS011;26316;55.976;37.140;2022-07-23T04:50:42;8.52;;;4.05;;
40609;SDS011;26316;55.976;37.140;2022-07-23T04:53:14;5.15;;;4.65;;
40609;SDS011;26316;55.976;37.140;2022-07-23T04:55:41;8.50;;;4.65;;
40609;SDS011;26316;55.976;37.140;2022-07-23T04:58:07;10.52;;;4.63;;
40609;SDS011;26316;55.976;37.140;2022-07-23T05:00:32;10.43;;;4.72;;
40609;SDS011;26316;55.976;37.140;2022-07-23T05:02:58;8.52;;;4.88;;
40609;SDS011;26316;55.976;37.140;2022-07-23T05:05:24;10.27;;;4.72;;
40609;SDS011;26316;55.976;37.140;2022-07-23T05:07:53;8.32;;;5.18;;
40609;SDS011;26316;55.976;37.140;2022-07-23T05:10:19;7.90;;;5.10;;
40609;SDS011;26316;55.976;37.140;2022-07-23T05:12:46;9.70;;;4.88;;
40609;SDS011;26316;55.976;37.140;2022-07-23T05:15:12;5.50;;;4.32;;
40609;SDS011;26316;55.976;37.140;2022-07-23T05:17:38;4.72;;;4.25;;
40609;SDS011;26316;55.976;37.140;2022-07-23T05:20:10;5.68;;;4.07;;
40609;SDS011;26316;55.976;37.140;2022-07-23T05:22:36;11.38;;;4.50;;
40609;SDS011;26316;55.976;37.140;2022-07-23T05:25:02;5.70;;;4.60;;
40609;SDS011;26316;55.976;37.140;2022-07-23T05:27:28;5.35;;;4.20;;
40609;SDS011;26316;55.976;37.140;2022-07-23T05:29:55;4.82;;;4.32;;
40609;SDS011;26316;55.976;37.140;2022-07-23T05:32:20;5.68;;;4.75;;
40609;SDS011;26316;55.976;37.140;2022-07-23T05:34:54;5.53;;;5.00;;
40609;SDS011;26316;55.976;37.140;2022-07-23T05:37:20;8.98;;;7.93;;
40609;SDS011;26316;55.976;37.140;2022-07-23T05:39:46;6.45;;;5.85;;
40609;SDS011;26316;55.976;37.140;2022-07-23T05:42:11;7.78;;;5.75;;
40609;SDS011;26316;55.976;37.140;2022-07-23T05:44:38;7.32;;;6.03;;
40609;SDS011;26316;55.976;37.140;2022-07-23T05:47:04;6.15;;;5.50;;
40609;SDS011;26316;55.976;37.140;2022-07-23T05:49:30;6.50;;;5.35;;
40609;SDS011;26316;55.976;37.140;2022-07-23T05:52:17;9.07;;;4.95;;
40609;SDS011;26316;55.976;37.140;2022-07-23T05:55:09;11.60;;;4.82;;
40609;SDS011;26316;55.976;37.140;2022-07-23T05:57:43;8.40;;;5.18;;
40609;SDS011;26316;55.976;37.140;2022-07-23T06:00:10;5.53;;;4.97;;
40609;SDS011;26316;55.976;37.140;2022-07-23T06:02:39;5.80;;;5.10;;
40609;SDS011;26316;55.976;37.140;2022-07-23T06:05:07;6.38;;;5.78;;
40609;SDS011;26316;55.976;37.140;2022-07-23T06:07:35;6.50;;;5.90;;
40609;SDS011;26316;55.976;37.140;2022-07-23T06:10:02;5.82;;;5.32;;
40609;SDS011;26316;55.976;37.140;2022-07-23T06:12:29;11.98;;;7.60;;
40609;SDS011;26316;55.976;37.140;2022-07-23T06:14:55;18.52;;;8.50;;
40609;SDS011;26316;55.976;37.140;2022-07-23T06:17:21;62.60;;;15.75;;
40609;SDS011;26316;55.976;37.140;2022-07-23T06:19:47;35.92;;;12.80;;
40609;SDS011;26316;55.976;37.140;2022-07-23T06:22:12;34.22;;;12.02;;
40609;SDS011;26316;55.976;37.140;2022-07-23T06:24:38;33.72;;;13.32;;
40609;SDS011;26316;55.976;37.140;2022-07-23T06:27:04;56.15;;;16.65;;
40609;SDS011;26316;55.976;37.140;2022-07-23T06:29:30;36.85;;;14.40;;
40609;SDS011;26316;55.976;37.140;2022-07-23T06:31:55;48.53;;;15.75;;
40609;SDS011;26316;55.976;37.140;2022-07-23T06:34:21;47.22;;;16.75;;
40609;SDS011;26316;55.976;37.140;2022-07-23T06:36:47;28.38;;;13.75;;
40609;SDS011;26316;55.976;37.140;2022-07-23T06:39:12;28.88;;;12.13;;
40609;SDS011;26316;55.976;37.140;2022-07-23T06:41:47;29.75;;;13.95;;
40609;SDS011;26316;55.976;37.140;2022-07-23T06:44:12;24.35;;;11.30;;
40609;SDS011;26316;55.976;37.140;2022-07-23T06:46:40;17.10;;;7.38;;
40609;SDS011;26316;55.976;37.140;2022-07-23T06:49:06;15.18;;;9.00;;
40609;SDS011;26316;55.976;37.140;2022-07-23T06:51:36;14.73;;;8.25;;
40609;SDS011;26316;55.976;37.140;2022-07-23T06:54:02;12.07;;;8.35;;
40609;SDS011;26316;55.976;37.140;2022-07-23T06:56:28;17.48;;;9.75;;
40609;SDS011;26316;55.976;37.140;2022-07-23T06:58:54;24.50;;;10.68;;
40609;SDS011;26316;55.976;37.140;2022-07-23T07:01:20;23.90;;;11.43;;
40609;SDS011;26316;55.976;37.140;2022-07-23T07:03:46;28.40;;;11.50;;
40609;SDS011;26316;55.976;37.140;2022-07-23T07:06:13;27.30;;;10.73;;
40609;SDS011;26316;55.976;37.140;2022-07-23T07:08:39;22.80;;;11.00;;
40609;SDS011;26316;55.976;37.140;2022-07-23T07:11:05;17.13;;;9.98;;
40609;SDS011;26316;55.976;37.140;2022-07-23T07:13:30;12.88;;;7.63;;
40609;SDS011;26316;55.976;37.140;2022-07-23T07:15:56;9.45;;;6.40;;
40609;SDS011;26316;55.976;37.140;2022-07-23T07:18:22;12.95;;;7.85;;
40609;SDS011;26316;55.976;37.140;2022-07-23T07:20:48;16.90;;;8.73;;
40609;SDS011;26316;55.976;37.140;2022-07-23T07:23:14;16.05;;;9.10;;
40609;SDS011;26316;55.976;37.140;2022-07-23T07:25:40;14.63;;;9.00;;
40609;SDS011;26316;55.976;37.140;2022-07-23T07:28:06;14.15;;;8.75;;
40609;SDS011;26316;55.976;37.140;2022-07-23T07:30:31;17.63;;;8.85;;
40609;SDS011;26316;55.976;37.140;2022-07-23T07:32:57;13.15;;;8.02;;
40609;SDS011;26316;55.976;37.140;2022-07-23T07:35:23;12.63;;;8.32;;
40609;SDS011;26316;55.976;37.140;2022-07-23T07:37:49;13.75;;;7.95;;
40609;SDS011;26316;55.976;37.140;2022-07-23T07:40:15;5.80;;;5.20;;
40609;SDS011;26316;55.976;37.140;2022-07-23T07:42:47;6.13;;;5.22;;
40609;SDS011;26316;55.976;37.140;2022-07-23T07:45:14;4.78;;;4.05;;
40609;SDS011;26316;55.976;37.140;2022-07-23T07:47:41;5.35;;;4.68;;
40609;SDS011;26316;55.976;37.140;2022-07-23T07:50:07;4.50;;;4.10;;
40609;SDS011;26316;55.976;37.140;2022-07-23T07:52:34;4.13;;;3.72;;
40609;SDS011;26316;55.976;37.140;2022-07-23T07:55:05;4.82;;;4.43;;
40609;SDS011;26316;55.976;37.140;2022-07-23T07:57:32;5.93;;;4.88;;
40609;SDS011;26316;55.976;37.140;2022-07-23T07:59:58;7.03;;;4.93;;
40609;SDS011;26316;55.976;37.140;2022-07-23T08:02:24;6.05;;;4.53;;
40609;SDS011;26316;55.976;37.140;2022-07-23T08:04:50;6.18;;;4.78;;
40609;SDS011;26316;55.976;37.140;2022-07-23T08:07:15;10.07;;;5.45;;
40609;SDS011;26316;55.976;37.140;2022-07-23T08:09:41;6.35;;;4.38;;
40609;SDS011;26316;55.976;37.140;2022-07-23T08:12:07;5.70;;;3.10;;
40609;SDS011;26316;55.976;37.140;2022-07-23T08:14:33;5.15;;;3.38;;
40609;SDS011;26316;55.976;37.140;2022-07-23T08:16:59;6.70;;;3.50;;
40609;SDS011;26316;55.976;37.140;2022-07-23T08:19:25;3.88;;;3.25;;
40609;SDS011;26316;55.976;37.140;2022-07-23T08:21:51;6.10;;;4.13;;
40609;SDS011;26316;55.976;37.140;2022-07-23T08:24:16;3.67;;;3.38;;
40609;SDS011;26316;55.976;37.140;2022-07-23T08:26:42;6.38;;;3.92;;
40609;SDS011;26316;55.976;37.140;2022-07-23T08:29:08;6.43;;;3.72;;
40609;SDS011;26316;55.976;37.140;2022-07-23T08:31:36;3.97;;;3.42;;
40609;SDS011;26316;55.976;37.140;2022-07-23T08:34:09;3.90;;;3.60;;
40609;SDS011;26316;55.976;37.140;2022-07-23T08:36:35;3.88;;;3.30;;
40609;SDS011;26316;55.976;37.140;2022-07-23T08:39:03;3.47;;;3.17;;
40609;SDS011;26316;55.976;37.140;2022-07-23T08:41:36;5.57;;;3.58;;
40609;SDS011;26316;55.976;37.140;2022-07-23T08:44:06;3.60;;;3.30;;
40609;SDS011;26316;55.976;37.140;2022-07-23T08:46:33;3.50;;;3.20;;
40609;SDS011;26316;55.976;37.140;2022-07-23T08:49:01;3.45;;;3.17;;
40609;SDS011;26316;55.976;37.140;2022-07-23T08:51:27;5.63;;;3.17;;
40609;SDS011;26316;55.976;37.140;2022-07-23T08:53:55;5.20;;;3.80;;
40609;SDS011;26316;55.976;37.140;2022-07-23T08:56:22;7.68;;;5.50;;
40609;SDS011;26316;55.976;37.140;2022-07-23T08:58:47;6.75;;;5.50;;
40609;SDS011;26316;55.976;37.140;2022-07-23T09:01:14;5.38;;;4.78;;
40609;SDS011;26316;55.976;37.140;2022-07-23T09:03:39;4.90;;;4.18;;
40609;SDS011;26316;55.976;37.140;2022-07-23T09:06:05;5.38;;;4.88;;
40609;SDS011;26316;55.976;37.140;2022-07-23T09:08:35;4.70;;;4.30;;
40609;SDS011;26316;55.976;37.140;2022-07-23T09:11:02;4.22;;;3.92;;
40609;SDS011;26316;55.976;37.140;2022-07-23T09:15:58;5.03;;;4.63;;
40609;SDS011;26316;55.976;37.140;2022-07-23T09:18:37;4.68;;;4.28;;
40609;SDS011;26316;55.976;37.140;2022-07-23T09:21:05;5.03;;;4.40;;
40609;SDS011;26316;55.976;37.140;2022-07-23T09:29:23;4.68;;;4.22;;
40609;SDS011;26316;55.976;37.140;2022-07-23T09:31:51;4.55;;;3.78;;
40609;SDS011;26316;55.976;37.140;2022-07-23T09:36:52;4.13;;;3.83;;
40609;SDS011;26316;55.976;37.140;2022-07-23T09:39:26;4.30;;;4.00;;
40609;SDS011;26316;55.976;37.140;2022-07-23T09:41:56;4.07;;;3.78;;
40609;SDS011;26316;55.976;37.140;2022-07-23T09:44:22;4.13;;;3.67;;
40609;SDS011;26316;55.976;37.140;2022-07-23T09:46:49;4.18;;;3.47;;
40609;SDS011;26316;55.976;37.140;2022-07-23T09:51:52;4.22;;;3.83;;
40609;SDS011;26316;55.976;37.140;2022-07-23T09:54:23;4.85;;;4.30;;
40609;SDS011;26316;55.976;37.140;2022-07-23T09:56:52;6.55;;;3.88;;
40609;SDS011;26316;55.976;37.140;2022-07-23T09:59:20;3.97;;;3.67;;
40609;SDS011;26316;55.976;37.140;2022-07-23T10:01:52;4.25;;;3.85;;
40609;SDS011;26316;55.976;37.140;2022-07-23T10:04:20;5.85;;;3.75;;
40609;SDS011;26316;55.976;37.140;2022-07-23T10:07:04;3.38;;;3.15;;
40609;SDS011;26316;55.976;37.140;2022-07-23T10:09:52;4.03;;;3.63;;
40609;SDS011;26316;55.976;37.140;2022-07-23T10:12:43;6.07;;;3.58;;
40609;SDS011;26316;55.976;37.140;2022-07-23T10:15:19;4.15;;;3.30;;
40609;SDS011;26316;55.976;37.140;2022-07-23T10:17:45;3.65;;;3.35;;
40609;SDS011;26316;55.976;37.140;2022-07-23T10:20:10;3.80;;;3.50;;
40609;SDS011;26316;55.976;37.140;2022-07-23T10:22:37;4.03;;;3.72;;
40609;SDS011;26316;55.976;37.140;2022-07-23T10:25:20;6.32;;;3.88;;
40609;SDS011;26316;55.976;37.140;2022-07-23T10:43:21;3.50;;;3.30;;
40609;SDS011;26316;55.976;37.140;2022-07-23T10:45:47;4.72;;;3.83;;
40609;SDS011;26316;55.976;37.140;2022-07-23T10:48:20;5.15;;;3.70;;
40609;SDS011;26316;55.976;37.140;2022-07-23T10:56:17;3.83;;;3.53;;
40609;SDS011;26316;55.976;37.140;2022-07-23T10:59:30;4.13;;;3.30;;
40609;SDS011;26316;55.976;37.140;2022-07-23T11:02:18;3.63;;;3.40;;
40609;SDS011;26316;55.976;37.140;2022-07-23T11:04:52;3.38;;;3.17;;
40609;SDS011;26316;55.976;37.140;2022-07-23T11:07:18;3.40;;;3.10;;
40609;SDS011;26316;55.976;37.140;2022-07-23T11:09:45;3.50;;;3.30;;
40609;SDS011;26316;55.976;37.140;2022-07-23T11:17:24;3.63;;;3.30;;
40609;SDS011;26316;55.976;37.140;2022-07-23T11:25:05;4.75;;;3.42;;
40609;SDS011;26316;55.976;37.140;2022-07-23T11:30:05;4.03;;;3.55;;
40609;SDS011;26316;55.976;37.140;2022-07-23T11:32:33;5.65;;;3.47;;
40609;SDS011;26316;55.976;37.140;2022-07-23T11:35:02;4.50;;;3.85;;
40609;SDS011;26316;55.976;37.140;2022-07-23T11:37:39;5.45;;;3.60;;
40609;SDS011;26316;55.976;37.140;2022-07-23T11:40:08;4.40;;;3.50;;
40609;SDS011;26316;55.976;37.140;2022-07-23T11:42:37;3.80;;;3.50;;
40609;SDS011;26316;55.976;37.140;2022-07-23T11:45:05;4.18;;;3.40;;
40609;SDS011;26316;55.976;37.140;2022-07-23T11:47:32;4.22;;;3.80;;
40609;SDS011;26316;55.976;37.140;2022-07-23T11:49:58;8.77;;;3.70;;
40609;SDS011;26316;55.976;37.140;2022-07-23T11:52:26;4.17;;;3.80;;
40609;SDS011;26316;55.976;37.140;2022-07-23T11:54:54;3.95;;;3.55;;
40609;SDS011;26316;55.976;37.140;2022-07-23T11:57:24;4.15;;;3.78;;
40609;SDS011;26316;55.976;37.140;2022-07-23T11:59:52;3.85;;;3.53;;
40609;SDS011;26316;55.976;37.140;2022-07-23T12:02:23;7.15;;;3.55;;
40609;SDS011;26316;55.976;37.140;2022-07-23T12:04:51;3.92;;;3.60;;
40609;SDS011;26316;55.976;37.140;2022-07-23T12:09:56;3.85;;;3.55;;
40609;SDS011;26316;55.976;37.140;2022-07-23T12:12:23;3.58;;;3.28;;
40609;SDS011;26316;55.976;37.140;2022-07-23T12:14:56;4.38;;;3.67;;
40609;SDS011;26316;55.976;37.140;2022-07-23T12:17:33;4.22;;;3.78;;
40609;SDS011;26316;55.976;37.140;2022-07-23T12:20:01;3.65;;;3.45;;
40609;SDS011;26316;55.976;37.140;2022-07-23T12:22:34;3.92;;;3.63;;
40609;SDS011;26316;55.976;37.140;2022-07-23T12:25:06;4.38;;;3.65;;
40609;SDS011;26316;55.976;37.140;2022-07-23T12:27:34;3.97;;;3.47;;
40609;SDS011;26316;55.976;37.140;2022-07-23T12:30:14;4.60;;;3.42;;
40609;SDS011;26316;55.976;37.140;2022-07-23T12:32:51;5.20;;;3.78;;
40609;SDS011;26316;55.976;37.140;2022-07-23T12:35:18;5.30;;;3.83;;
40609;SDS011;26316;55.976;37.140;2022-07-23T12:37:45;5.78;;;3.60;;
40609;SDS011;26316;55.976;37.140;2022-07-23T12:40:25;4.00;;;3.70;;
40609;SDS011;26316;55.976;37.140;2022-07-23T12:42:56;3.85;;;3.40;;
40609;SDS011;26316;55.976;37.140;2022-07-23T12:45:48;4.00;;;3.55;;
40609;SDS011;26316;55.976;37.140;2022-07-23T12:48:21;4.32;;;3.80;;
40609;SDS011;26316;55.976;37.140;2022-07-23T12:50:54;5.05;;;3.47;;
40609;SDS011;26316;55.976;37.140;2022-07-23T12:53:23;3.97;;;3.67;;
40609;SDS011;26316;55.976;37.140;2022-07-23T12:58:23;4.80;;;3.50;;
40609;SDS011;26316;55.976;37.140;2022-07-23T13:03:25;4.25;;;3.35;;
40609;SDS011;26316;55.976;37.140;2022-07-23T13:05:52;4.03;;;3.35;;
40609;SDS011;26316;55.976;37.140;2022-07-23T13:08:18;3.88;;;3.50;;
40609;SDS011;26316;55.976;37.140;2022-07-23T13:10:44;3.92;;;3.63;;
40609;SDS011;26316;55.976;37.140;2022-07-23T13:13:13;4.28;;;3.53;;
40609;SDS011;26316;55.976;37.140;2022-07-23T13:15:39;3.45;;;3.17;;
40609;SDS011;26316;55.976;37.140;2022-07-23T13:18:08;3.58;;;3.33;;
40609;SDS011;26316;55.976;37.140;2022-07-23T13:20:33;4.63;;;3.30;;
40609;SDS011;26316;55.976;37.140;2022-07-23T13:22:59;3.72;;;3.22;;
40609;SDS011;26316;55.976;37.140;2022-07-23T13:25:26;4.72;;;3.30;;
40609;SDS011;26316;55.976;37.140;2022-07-23T13:27:52;4.00;;;3.50;;
40609;SDS011;26316;55.976;37.140;2022-07-23T13:30:18;3.83;;;3.58;;
40609;SDS011;26316;55.976;37.140;2022-07-23T13:32:46;3.65;;;3.45;;
40609;SDS011;26316;55.976;37.140;2022-07-23T13:35:13;4.93;;;3.63;;
40609;SDS011;26316;55.976;37.140;2022-07-23T13:37:38;4.18;;;3.15;;
40609;SDS011;26316;55.976;37.140;2022-07-23T13:40:07;7.10;;;3.70;;
40609;SDS011;26316;55.976;37.140;2022-07-23T13:42:33;3.90;;;3.53;;
40609;SDS011;26316;55.976;37.140;2022-07-23T13:44:59;3.08;;;2.75;;
40609;SDS011;26316;55.976;37.140;2022-07-23T13:47:25;3.75;;;3.45;;
40609;SDS011;26316;55.976;37.140;2022-07-23T13:49:51;5.28;;;3.83;;
40609;SDS011;26316;55.976;37.140;2022-07-23T13:52:16;5.30;;;3.20;;
40609;SDS011;26316;55.976;37.140;2022-07-23T13:54:42;3.35;;;3.10;;
40609;SDS011;26316;55.976;37.140;2022-07-23T13:57:08;7.88;;;3.60;;
40609;SDS011;26316;55.976;37.140;2022-07-23T13:59:34;3.38;;;3.17;;
40609;SDS011;26316;55.976;37.140;2022-07-23T14:02:04;3.83;;;3.22;;
40609;SDS011;26316;55.976;37.140;2022-07-23T14:04:30;3.60;;;3.13;;
40609;SDS011;26316;55.976;37.140;2022-07-23T14:06:56;4.88;;;3.20;;
40609;SDS011;26316;55.976;37.140;2022-07-23T14:09:22;2.95;;;2.75;;
40609;SDS011;26316;55.976;37.140;2022-07-23T14:11:48;4.15;;;3.35;;
40609;SDS011;26316;55.976;37.140;2022-07-23T14:14:16;3.63;;;3.25;;
40609;SDS011;26316;55.976;37.140;2022-07-23T14:16:42;3.45;;;3.10;;
40609;SDS011;26316;55.976;37.140;2022-07-23T14:19:09;3.40;;;3.15;;
40609;SDS011;26316;55.976;37.140;2022-07-23T14:21:35;3.38;;;3.17;;
40609;SDS011;26316;55.976;37.140;2022-07-23T14:24:01;3.45;;;3.20;;
40609;SDS011;26316;55.976;37.140;2022-07-23T14:26:27;3.38;;;3.13;;
40609;SDS011;26316;55.976;37.140;2022-07-23T14:28:53;3.63;;;3.20;;
40609;SDS011;26316;55.976;37.140;2022-07-23T14:31:18;3.33;;;3.05;;
40609;SDS011;26316;55.976;37.140;2022-07-23T14:33:44;3.30;;;2.97;;
40609;SDS011;26316;55.976;37.140;2022-07-23T14:36:10;5.57;;;3.60;;
40609;SDS011;26316;55.976;37.140;2022-07-23T14:38:36;3.00;;;2.80;;
40609;SDS011;26316;55.976;37.140;2022-07-23T14:41:01;3.10;;;2.90;;
40609;SDS011;26316;55.976;37.140;2022-07-23T14:43:32;3.70;;;3.20;;
40609;SDS011;26316;55.976;37.140;2022-07-23T14:45:58;3.53;;;3.30;;
40609;SDS011;26316;55.976;37.140;2022-07-23T14:48:24;3.95;;;3.28;;
40609;SDS011;26316;55.976;37.140;2022-07-23T14:50:50;3.20;;;3.00;;
40609;SDS011;26316;55.976;37.140;2022-07-23T14:53:16;5.15;;;3.47;;
40609;SDS011;26316;55.976;37.140;2022-07-23T14:55:41;4.00;;;3.03;;
40609;SDS011;26316;55.976;37.140;2022-07-23T14:58:07;3.47;;;3.22;;
40609;SDS011;26316;55.976;37.140;2022-07-23T15:00:33;6.43;;;3.72;;
40609;SDS011;26316;55.976;37.140;2022-07-23T15:02:59;3.92;;;3.15;;
40609;SDS011;26316;55.976;37.140;2022-07-23T15:05:24;4.53;;;3.40;;
40609;SDS011;26316;55.976;37.140;2022-07-23T15:07:50;4.30;;;3.58;;
40609;SDS011;26316;55.976;37.140;2022-07-23T15:10:16;3.10;;;2.70;;
40609;SDS011;26316;55.976;37.140;2022-07-23T15:12:42;3.28;;;3.08;;
40609;SDS011;26316;55.976;37.140;2022-07-23T15:15:07;3.10;;;2.70;;
40609;SDS011;26316;55.976;37.140;2022-07-23T15:17:34;3.30;;;3.00;;
40609;SDS011;26316;55.976;37.140;2022-07-23T15:19:59;7.32;;;3.25;;
40609;SDS011;26316;55.976;37.140;2022-07-23T15:22:25;3.75;;;2.90;;
40609;SDS011;26316;55.976;37.140;2022-07-23T15:24:51;3.40;;;3.10;;
40609;SDS011;26316;55.976;37.140;2022-07-23T15:27:17;5.78;;;3.33;;
40609;SDS011;26316;55.976;37.140;2022-07-23T15:29:43;4.88;;;3.08;;
40609;SDS011;26316;55.976;37.140;2022-07-23T15:32:10;8.80;;;3.30;;